Art, Texas
Current Conditions -  °F | °C
As of 8:55 AM on Wednesday 22 Oct 2014 (Local Time) from KBBD Reporting Station
Broken Clouds Broken Clouds  
Wind Chill: 18°   Ceiling: 8500
Heat Index: 18°   Visibility: 10mi
Dew Point: 11°   Wind: 3mph
Humidity: 64%   Direction: 130°SE
Pressure: 30.13"   Gusts: NA
Location:  30.74°N, 99.11°W
Report Text: KBBD 221355Z AUTO 13003KT 10SM BKN085 18/11 A3013 RMK
Loading
Personal Weather Stations






























Interactive Weather Map
Tropical Storm Tracking
New forecast layout! Learn more

10-Day Weather Forecast

Advertisements
Track Severe Weather on mobile